Time;durP1;ratioP1;P1;durP2;ratioP2;P2;SDS_P1;SDS_P2;PMS_P1;PMS_P2;Temp;Humidity;BMP_temperature;BMP_pressure;BME280_temperature;BME280_humidity;BME280_pressure;Samples;Min_cycle;Max_cycle;Signal;HPM_P1;HPM_P2
2022/09/26 04:00:30;;;;;;;2.40;2.20;;;8.70;96.30;;;;;;6097837;23;20405;31
2022/09/26 04:02:58;;;;;;;3.90;2.47;;;8.70;96.30;;;;;;4917668;29;20484;-80
2022/09/26 04:05:23;;;;;;;3.93;2.60;;;8.70;96.30;;;;;;4918690;29;20416;-80
2022/09/26 04:07:49;;;;;;;3.57;1.90;;;8.70;96.30;;;;;;4919775;29;20505;-79
2022/09/26 04:10:14;;;;;;;4.70;2.30;;;8.70;96.30;;;;;;4919678;29;20191;-80
2022/09/26 04:12:40;;;;;;;4.87;2.83;;;8.70;96.30;;;;;;4919023;29;20629;-80
2022/09/26 04:15:06;;;;;;;6.93;3.10;;;8.70;96.30;;;;;;4922695;29;20203;-79
2022/09/26 04:17:32;;;;;;;10.77;2.40;;;8.70;96.30;;;;;;4926811;29;20185;-78
2022/09/26 04:19:58;;;;;;;3.47;2.77;;;8.70;96.30;;;;;;4927111;29;20467;-79
2022/09/26 04:22:24;;;;;;;7.00;2.70;;;8.70;96.30;;;;;;4923179;29;20440;-79
2022/09/26 04:24:50;;;;;;;4.03;2.87;;;8.70;96.30;;;;;;4920733;29;20188;-79
2022/09/26 04:27:17;;;;;;;4.67;2.50;;;8.70;96.30;;;;;;4923748;29;20176;-79
2022/09/26 04:29:43;;;;;;;7.47;6.67;;;8.70;96.30;;;;;;4930034;29;20461;-79
2022/09/26 04:32:09;;;;;;;6.80;4.73;;;8.70;96.30;;;;;;4905401;29;20451;-79
2022/09/26 04:34:37;;;;;;;3.50;3.20;;;8.70;96.30;;;;;;4910576;29;20425;-79
2022/09/26 04:37:02;;;;;;;5.10;3.70;;;8.70;96.30;;;;;;4915243;29;20181;-79
2022/09/26 04:39:28;;;;;;;6.17;3.80;;;8.70;96.30;;;;;;4917186;29;20451;-79
2022/09/26 04:47:51;;;;;;;6.47;4.30;;;8.60;96.30;;;;;;4935157;29;21053;-77
2022/09/26 04:50:16;;;;;;;4.50;3.90;;;8.60;96.30;;;;;;4933763;29;20506;-76
2022/09/26 04:52:42;;;;;;;7.30;5.17;;;8.70;96.30;;;;;;4915597;29;20177;-76
2022/09/26 04:55:07;;;;;;;9.13;5.43;;;8.70;96.30;;;;;;4915976;29;20189;-77
2022/09/26 04:57:34;;;;;;;10.67;4.40;;;8.70;96.30;;;;;;4915820;29;20653;-78
2022/09/26 05:00:00;;;;;;;5.90;4.40;;;8.70;96.30;;;;;;4914432;29;20319;-77
2022/09/26 05:02:25;;;;;;;4.90;4.40;;;8.70;96.30;;;;;;4919832;29;20987;-78
2022/09/26 05:04:52;;;;;;;8.63;5.77;;;8.70;96.30;;;;;;4915954;29;20180;-77
2022/09/26 05:07:18;;;;;;;7.47;4.23;;;8.80;96.30;;;;;;4915887;29;20264;-77
2022/09/26 05:09:43;;;;;;;5.90;5.10;;;8.80;96.30;;;;;;4914296;29;20504;-78
2022/09/26 05:12:09;;;;;;;14.93;8.60;;;8.80;96.30;;;;;;4915466;29;20526;-76
2022/09/26 05:14:35;;;;;;;8.10;6.03;;;8.80;96.30;;;;;;4915525;29;20198;-76
2022/09/26 05:17:01;;;;;;;9.93;6.47;;;8.80;96.30;;;;;;4915797;29;20176;-76
2022/09/26 05:19:26;;;;;;;6.57;5.87;;;8.90;96.30;;;;;;4914274;29;20196;-77
2022/09/26 05:21:52;;;;;;;8.20;6.37;;;8.90;96.30;;;;;;4915489;29;20460;-79
2022/09/26 05:27:05;;;;;;;13.90;6.80;;;8.90;96.30;;;;;;4924247;29;20231;-76
2022/09/26 05:29:31;;;;;;;11.93;6.30;;;8.90;96.30;;;;;;4936912;29;20426;-76
2022/09/26 05:31:57;;;;;;;11.23;7.37;;;8.90;96.30;;;;;;4923320;29;20448;-78
2022/09/26 05:34:24;;;;;;;9.30;6.50;;;8.90;96.30;;;;;;4919345;29;20199;-76
2022/09/26 05:36:50;;;;;;;12.80;6.77;;;9.00;96.30;;;;;;4919195;29;20954;-76
2022/09/26 05:42:03;;;;;;;9.13;6.57;;;9.00;96.30;;;;;;4918483;29;20482;-77
2022/09/26 05:44:29;;;;;;;7.90;6.70;;;9.00;96.30;;;;;;4918484;29;20409;-76
2022/09/26 05:46:56;;;;;;;11.30;7.03;;;9.00;96.30;;;;;;4918202;29;20878;-80
2022/09/26 05:49:21;;;;;;;10.17;7.20;;;9.00;96.30;;;;;;4918061;29;20492;-78
2022/09/26 05:51:47;;;;;;;9.40;7.33;;;9.00;96.30;;;;;;4918724;29;20440;-76
2022/09/26 05:54:13;;;;;;;8.77;7.10;;;9.10;96.30;;;;;;4920546;29;20181;-77
2022/09/26 05:56:38;;;;;;;9.63;7.10;;;9.10;96.30;;;;;;4920231;29;20176;-77
2022/09/26 05:59:04;;;;;;;8.93;7.23;;;9.20;96.30;;;;;;4918461;29;20192;-77
2022/09/26 06:01:32;;;;;;;9.30;7.33;;;9.20;96.30;;;;;;4919535;29;20204;-78
2022/09/26 06:03:57;;;;;;;11.47;7.20;;;9.20;96.30;;;;;;4918100;29;20173;-76
2022/09/26 06:06:23;;;;;;;7.00;6.30;;;9.20;96.30;;;;;;4919231;29;20937;-75
2022/09/26 06:08:48;;;;;;;15.23;7.50;;;9.30;96.30;;;;;;4917760;29;20188;-75
2022/09/26 06:11:16;;;;;;;11.97;7.23;;;9.30;96.30;;;;;;4918963;29;20204;-78
2022/09/26 06:13:44;;;;;;;8.10;7.27;;;9.30;96.30;;;;;;4917845;29;20177;-75
2022/09/26 06:16:13;;;;;;;7.30;6.60;;;9.30;96.30;;;;;;4919068;29;20502;-75
2022/09/26 06:18:40;;;;;;;9.33;7.87;;;9.40;96.30;;;;;;4917353;29;20953;-82
2022/09/26 06:21:08;;;;;;;10.00;7.10;;;9.40;96.30;;;;;;4924556;29;20447;-75
2022/09/26 06:23:34;;;;;;;10.90;7.43;;;9.40;96.30;;;;;;4922361;29;20440;-76
2022/09/26 06:26:01;;;;;;;8.33;7.40;;;9.40;96.30;;;;;;4918603;29;20654;-76
2022/09/26 06:28:27;;;;;;;10.03;6.80;;;9.40;96.30;;;;;;4918871;29;20169;-76
2022/09/26 06:30:53;;;;;;;10.60;7.43;;;9.40;96.30;;;;;;4918503;29;20439;-75
2022/09/26 06:33:19;;;;;;;8.90;8.00;;;9.40;96.30;;;;;;4915803;29;20417;-78
2022/09/26 06:35:46;;;;;;;8.20;6.60;;;9.40;96.30;;;;;;4918018;29;20954;-76
2022/09/26 06:38:11;;;;;;;7.80;6.23;;;9.40;96.30;;;;;;4918061;29;20408;-76
2022/09/26 06:40:37;;;;;;;7.27;6.53;;;9.50;96.30;;;;;;4918158;29;20436;-75
2022/09/26 06:43:02;;;;;;;14.23;6.77;;;9.50;96.30;;;;;;4918062;29;20172;-75
2022/09/26 06:45:28;;;;;;;11.70;8.47;;;9.60;96.30;;;;;;4918142;29;20180;-76
2022/09/26 06:47:54;;;;;;;8.23;7.10;;;9.70;96.30;;;;;;4917931;29;20614;-76
2022/09/26 06:50:20;;;;;;;10.70;6.40;;;9.70;96.30;;;;;;4916650;29;20190;-79
2022/09/26 06:52:46;;;;;;;10.33;6.60;;;9.80;96.30;;;;;;4917863;29;20641;-76
2022/09/26 06:55:11;;;;;;;6.93;6.27;;;9.80;96.30;;;;;;4918048;29;20428;-78
2022/09/26 06:57:42;;;;;;;9.63;6.23;;;9.80;96.30;;;;;;4917958;29;20204;-75
2022/09/26 07:00:13;;;;;;;7.60;6.07;;;9.80;96.30;;;;;;4917826;29;20227;-75
2022/09/26 07:02:48;;;;;;;6.83;5.97;;;9.90;96.30;;;;;;4917726;29;20925;-76
2022/09/26 07:05:14;;;;;;;8.90;6.50;;;9.90;96.30;;;;;;4916274;29;20940;-79
2022/09/26 07:07:45;;;;;;;10.70;8.53;;;10.20;96.30;;;;;;4918016;29;20464;-79
2022/09/26 07:10:11;;;;;;;12.60;8.67;;;11.70;96.30;;;;;;4918372;29;20308;-81
2022/09/26 07:12:39;;;;;;;7.43;6.00;;;13.60;96.30;;;;;;4918037;29;20452;-81
2022/09/26 07:15:06;;;;;;;4.57;4.17;;;15.40;96.30;;;;;;4917893;29;20417;-80
2022/09/26 07:17:32;;;;;;;6.00;3.70;;;16.50;96.30;;;;;;4917863;29;20420;-81
2022/09/26 07:19:57;;;;;;;4.60;3.37;;;17.60;96.30;;;;;;4917750;29;20475;-81
2022/09/26 07:22:23;;;;;;;4.67;3.00;;;18.80;96.30;;;;;;4917674;29;20200;-81
2022/09/26 07:24:49;;;;;;;3.63;3.13;;;19.50;96.30;;;;;;4917786;29;20176;-81
2022/09/26 07:27:16;;;;;;;3.80;3.50;;;18.60;96.30;;;;;;4917861;29;20540;-80
2022/09/26 07:29:44;;;;;;;5.70;3.67;;;18.10;96.30;;;;;;4917521;29;20427;-81
2022/09/26 07:32:10;;;;;;;5.60;2.97;;;17.00;96.30;;;;;;4917327;29;20436;-81
2022/09/26 07:34:36;;;;;;;4.33;2.90;;;17.20;96.30;;;;;;4917399;29;20444;-80
2022/09/26 07:37:01;;;;;;;7.47;3.00;;;17.30;96.30;;;;;;4917251;29;20720;-80
2022/09/26 07:39:26;;;;;;;5.70;2.70;;;18.60;96.30;;;;;;4917041;29;20196;-81
2022/09/26 07:41:52;;;;;;;3.37;2.30;;;19.30;96.30;;;;;;4917688;29;20199;-81
2022/09/26 07:44:17;;;;;;;3.87;2.63;;;19.40;96.30;;;;;;4918835;29;20169;-80
2022/09/26 07:52:11;;;;;;;4.60;2.40;;;16.60;96.30;;;;;;4918693;29;20820;-79
2022/09/26 07:54:37;;;;;;;5.70;2.00;;;15.70;96.30;;;;;;4918621;29;20424;-80
2022/09/26 07:57:03;;;;;;;5.40;2.60;;;15.20;96.30;;;;;;4918477;29;20259;-80
2022/09/26 07:59:34;;;;;;;4.70;1.90;;;14.70;96.30;;;;;;4917215;29;20291;-80
2022/09/26 08:02:00;;;;;;;9.50;2.50;;;14.80;96.30;;;;;;4918871;29;20514;-79
2022/09/26 08:04:25;;;;;;;6.53;2.17;;;14.40;96.30;;;;;;4922291;29;20409;-79
2022/09/26 08:06:52;;;;;;;7.63;2.20;;;14.30;96.30;;;;;;4918512;29;20428;-80
2022/09/26 08:09:17;;;;;;;5.10;2.10;;;14.30;96.30;;;;;;4919661;29;20271;-80
2022/09/26 08:11:43;;;;;;;2.60;1.87;;;13.90;96.30;;;;;;4919263;29;20480;-79
2022/09/26 08:14:09;;;;;;;4.10;2.07;;;13.80;96.30;;;;;;4920258;29;20180;-78
2022/09/26 08:16:38;;;;;;;5.63;1.90;;;13.90;96.30;;;;;;4920160;29;20203;-80
2022/09/26 08:19:03;;;;;;;8.43;2.27;;;13.70;96.30;;;;;;4920576;29;20192;-79
2022/09/26 08:21:29;;;;;;;4.53;2.27;;;13.80;96.30;;;;;;4920024;29;21003;-78
2022/09/26 08:23:54;;;;;;;5.57;2.07;;;13.70;96.30;;;;;;4920343;29;20184;-79
2022/09/26 08:26:22;;;;;;;3.60;1.47;;;13.80;96.30;;;;;;4919206;29;20554;-79
2022/09/26 08:28:48;;;;;;;9.60;1.90;;;14.10;96.30;;;;;;4921143;29;20315;-79
2022/09/26 08:31:14;;;;;;;4.77;2.10;;;14.50;96.30;;;;;;4918287;29;20493;-80
2022/09/26 08:33:40;;;;;;;4.50;1.73;;;15.20;96.30;;;;;;4917299;29;20247;-79
2022/09/26 08:36:08;;;;;;;4.93;2.00;;;16.00;96.30;;;;;;4917882;29;20422;-81
2022/09/26 08:38:35;;;;;;;3.60;1.60;;;16.60;96.30;;;;;;4916312;29;20463;-81
2022/09/26 08:41:22;;;;;;;5.10;1.70;;;17.50;96.30;;;;;;4917916;29;20792;-79
2022/09/26 08:44:10;;;;;;;4.90;1.73;;;18.40;96.30;;;;;;4918045;29;20416;-80
2022/09/26 08:47:01;;;;;;;3.40;1.23;;;18.70;96.30;;;;;;4917486;29;20481;-81
2022/09/26 08:49:49;;;;;;;2.70;1.20;;;19.10;96.30;;;;;;4917934;29;20416;-80
2022/09/26 08:52:46;;;;;;;6.70;1.27;;;20.00;96.30;;;;;;4917507;29;20436;-80
2022/09/26 08:55:14;;;;;;;5.80;1.60;;;20.10;96.30;;;;;;4916313;29;20460;-80
2022/09/26 08:57:51;;;;;;;3.10;1.23;;;20.00;96.30;;;;;;4915921;29;20432;-80
2022/09/26 09:00:21;;;;;;;4.43;1.30;;;19.00;96.30;;;;;;4912853;29;20459;-80
2022/09/26 09:03:19;;;;;;;5.73;1.00;;;19.90;96.30;;;;;;4915777;29;20463;-78
2022/09/26 09:05:52;;;;;;;2.77;1.20;;;19.50;96.00;;;;;;4913932;29;20440;-80
2022/09/26 09:08:38;;;;;;;2.90;1.20;;;17.60;96.30;;;;;;4916325;29;20420;-80
2022/09/26 09:11:10;;;;;;;7.73;1.50;;;15.90;96.30;;;;;;4916372;29;20527;-80
2022/09/26 09:13:55;;;;;;;2.70;1.13;;;16.10;96.30;;;;;;4918506;29;20423;-79
2022/09/26 09:16:43;;;;;;;3.80;1.40;;;16.20;96.30;;;;;;4934736;29;20493;-79
2022/09/26 09:19:23;;;;;;;3.93;1.10;;;15.30;96.30;;;;;;4934766;29;20453;-79
2022/09/26 09:22:11;;;;;;;4.97;1.00;;;14.80;96.30;;;;;;4922990;29;20876;-79
2022/09/26 09:24:47;;;;;;;6.30;2.40;;;16.00;96.30;;;;;;4916949;29;21140;-80
2022/09/26 09:27:31;;;;;;;9.80;1.27;;;16.10;96.30;;;;;;4918242;29;20413;-78
2022/09/26 09:30:02;;;;;;;3.17;1.60;;;17.30;96.30;;;;;;4918861;29;20418;-79
2022/09/26 09:32:40;;;;;;;3.23;1.00;;;18.60;96.30;;;;;;4916959;29;20436;-80
2022/09/26 09:35:12;;;;;;;8.10;2.80;;;19.80;96.30;;;;;;4915883;29;20428;-79
2022/09/26 09:37:44;;;;;;;4.40;1.63;;;20.40;96.30;;;;;;4917647;29;20435;-79
2022/09/26 09:40:34;;;;;;;1.53;0.90;;;20.40;94.90;;;;;;4915545;29;20980;-79
2022/09/26 09:43:33;;;;;;;4.67;1.20;;;20.60;96.30;;;;;;4916832;29;20404;-79
2022/09/26 09:46:10;;;;;;;2.47;1.20;;;21.10;96.30;;;;;;4917172;29;20401;-80
2022/09/26 09:48:35;;;;;;;2.60;1.03;;;21.40;90.80;;;;;;4920888;29;20431;-79
2022/09/26 09:51:39;;;;;;;2.73;1.20;;;20.40;90.70;;;;;;4917121;29;20500;-75
2022/09/26 09:54:29;;;;;;;1.60;1.00;;;19.90;92.60;;;;;;4916381;29;20680;-78
2022/09/26 09:57:19;;;;;;;3.53;1.50;;;19.90;95.90;;;;;;4896107;29;20906;-77
2022/09/26 10:00:02;;;;;;;2.07;1.20;;;19.80;96.00;;;;;;4906540;29;21055;-77
2022/09/26 10:02:45;;;;;;;2.80;0.90;;;20.40;94.60;;;;;;4912588;29;20448;-75
2022/09/26 10:05:22;;;;;;;7.33;1.47;;;20.00;92.70;;;;;;4914613;29;21184;-75
2022/09/26 10:07:48;;;;;;;6.80;1.20;;;19.60;92.70;;;;;;4914619;29;20431;-75
2022/09/26 10:10:20;;;;;;;3.37;1.20;;;19.20;96.30;;;;;;4917464;29;20428;-76
2022/09/26 10:12:50;;;;;;;2.40;1.10;;;18.10;94.20;;;;;;4916188;29;20940;-75
2022/09/26 10:15:26;;;;;;;2.93;1.20;;;18.00;96.30;;;;;;4918351;29;20436;-78
2022/09/26 10:18:17;;;;;;;3.10;1.27;;;18.60;96.30;;;;;;4918024;29;20424;-76
2022/09/26 10:25:59;;;;;;;1.63;0.90;;;18.40;96.30;;;;;;5329197;23;20543;-74
2022/09/26 10:28:36;;;;;;;3.73;1.13;;;18.20;96.30;;;;;;4985514;28;20496;-75
2022/09/26 10:31:06;;;;;;;3.30;1.10;;;18.20;96.30;;;;;;4982685;28;20776;-74
2022/09/26 10:33:34;;;;;;;3.90;1.63;;;18.60;96.30;;;;;;4995260;28;20659;-75
2022/09/26 10:36:26;;;;;;;6.43;1.30;;;18.20;96.30;;;;;;4994052;28;20413;-78
2022/09/26 10:41:57;;;;;;;2.73;0.90;;;17.50;96.30;;;;;;4986517;28;20461;-77
2022/09/26 10:44:27;;;;;;;2.70;1.00;;;18.40;96.30;;;;;;4995523;28;20393;-79
2022/09/26 10:46:56;;;;;;;3.77;1.20;;;19.20;96.30;;;;;;4995325;28;20405;-77
2022/09/26 10:49:33;;;;;;;5.70;1.57;;;18.40;94.20;;;;;;4995376;28;20412;-76
2022/09/26 10:52:07;;;;;;;3.30;1.10;;;17.90;96.00;;;;;;4990098;28;20936;-77
2022/09/26 10:54:42;;;;;;;3.03;0.90;;;17.80;93.60;;;;;;4975433;28;20405;-75
2022/09/26 10:57:18;;;;;;;6.67;0.90;;;17.50;96.30;;;;;;4975429;28;20440;-76
2022/09/26 10:59:45;;;;;;;1.77;0.80;;;17.90;96.30;;;;;;4975133;28;20494;-76
2022/09/26 11:02:18;;;;;;;8.80;1.13;;;18.10;91.60;;;;;;4974780;28;20434;-78
2022/09/26 11:07:34;;;;;;;1.77;0.80;;;18.20;90.50;;;;;;4975568;28;20478;-78
2022/09/26 11:10:04;;;;;;;6.90;2.00;;;17.70;94.50;;;;;;4994198;28;20401;-75
2022/09/26 11:12:36;;;;;;;2.30;0.73;;;17.90;96.30;;;;;;4993990;28;20483;-78
2022/09/26 11:15:07;;;;;;;1.70;0.93;;;17.80;96.20;;;;;;4984990;28;20413;-75
2022/09/26 11:17:43;;;;;;;4.23;0.93;;;17.90;93.50;;;;;;4974836;28;20467;-75
2022/09/26 11:20:21;;;;;;;1.40;0.80;;;18.10;96.30;;;;;;4974083;28;20449;-75
2022/09/26 11:23:08;;;;;;;4.60;1.00;;;18.00;91.90;;;;;;4974910;28;20406;-75
2022/09/26 11:25:48;;;;;;;7.60;1.03;;;16.80;94.40;;;;;;4985474;28;20432;-75
2022/09/26 11:28:22;;;;;;;3.47;0.80;;;15.90;96.30;;;;;;4994063;28;20392;-75
2022/09/26 11:30:52;;;;;;;1.33;0.70;;;15.60;96.30;;;;;;4992126;28;20508;-75
2022/09/26 11:33:18;;;;;;;2.60;0.90;;;16.10;96.30;;;;;;4972651;28;20505;-75
2022/09/26 11:36:04;;;;;;;1.20;0.67;;;17.00;96.30;;;;;;4976084;28;20425;-75
2022/09/26 11:38:49;;;;;;;1.07;0.70;;;17.60;96.30;;;;;;4992574;28;20445;-74
2022/09/26 11:41:41;;;;;;;1.00;0.70;;;18.20;94.60;;;;;;4993816;28;20780;-77
2022/09/26 11:44:25;;;;;;;1.43;0.70;;;19.20;96.30;;;;;;4993877;28;20435;-78
2022/09/26 11:47:16;;;;;;;2.80;0.70;;;19.50;92.40;;;;;;4993928;28;20400;-78
2022/09/26 11:49:51;;;;;;;1.47;0.77;;;18.30;87.70;;;;;;4975490;28;20448;-75
2022/09/26 11:52:28;;;;;;;2.33;0.70;;;18.40;93.10;;;;;;4973725;28;20449;-78
2022/09/26 11:55:15;;;;;;;2.20;0.80;;;18.70;89.00;;;;;;4974162;28;20400;-76
2022/09/26 11:57:52;;;;;;;2.40;0.77;;;18.40;90.20;;;;;;4974438;28;20398;-76
2022/09/26 12:00:25;;;;;;;2.97;0.80;;;17.60;87.10;;;;;;4983976;28;20463;-76
2022/09/26 12:03:21;;;;;;;1.10;0.60;;;17.10;89.00;;;;;;4993292;28;20401;-76
2022/09/26 12:06:09;;;;;;;2.43;0.90;;;16.90;88.70;;;;;;4993609;28;20397;-77
2022/09/26 12:09:09;;;;;;;5.90;0.90;;;16.90;91.60;;;;;;4991668;28;20428;-76
2022/09/26 12:11:44;;;;;;;1.30;0.60;;;16.50;90.40;;;;;;4992843;28;20460;-77
2022/09/26 12:14:37;;;;;;;3.37;0.60;;;16.50;92.90;;;;;;4969865;28;20431;-76
2022/09/26 12:17:34;;;;;;;1.97;0.77;;;16.50;93.70;;;;;;4973131;28;20434;-76
2022/09/26 12:20:13;;;;;;;1.30;0.70;;;16.40;96.30;;;;;;4974357;28;20448;-77
2022/09/26 12:22:52;;;;;;;2.90;0.80;;;17.30;96.30;;;;;;4973136;28;20476;-78
2022/09/26 12:25:44;;;;;;;2.50;0.70;;;18.60;93.00;;;;;;4974184;28;20432;-77
2022/09/26 12:28:36;;;;;;;2.77;1.30;;;18.70;87.30;;;;;;4974091;28;20449;-77
2022/09/26 12:31:30;;;;;;;2.57;1.13;;;18.40;87.30;;;;;;4973623;28;20489;-78
2022/09/26 12:34:25;;;;;;;3.10;0.83;;;18.90;89.20;;;;;;4974005;28;20435;-76
2022/09/26 12:37:30;;;;;;;2.50;0.80;;;19.10;82.50;;;;;;4974264;28;20449;-77
2022/09/26 12:40:35;;;;;;;0.97;0.67;;;18.50;82.70;;;;;;4973957;28;20459;-76
2022/09/26 12:43:22;;;;;;;2.60;0.80;;;17.60;86.10;;;;;;4973818;28;20414;-78
2022/09/26 12:46:06;;;;;;;7.50;0.80;;;17.00;89.20;;;;;;4973933;28;20449;-76
2022/09/26 12:48:57;;;;;;;2.97;0.70;;;16.90;88.70;;;;;;4973227;28;20390;-77
2022/09/26 12:51:46;;;;;;;1.63;0.60;;;16.70;90.90;;;;;;4973696;28;20913;-76
2022/09/26 12:54:31;;;;;;;2.60;1.03;;;16.20;92.90;;;;;;4973543;28;20457;-78
2022/09/26 12:57:27;;;;;;;6.17;1.03;;;15.90;91.90;;;;;;4973136;28;20398;-76
2022/09/26 13:00:11;;;;;;;6.10;0.73;;;16.00;90.40;;;;;;4973652;28;20487;-76
2022/09/26 13:02:42;;;;;;;1.20;0.60;;;15.80;90.40;;;;;;4973689;28;20397;-76
2022/09/26 13:05:14;;;;;;;1.53;0.80;;;15.50;91.30;;;;;;4973866;28;20460;-79
2022/09/26 13:08:14;;;;;;;3.90;1.07;;;15.30;91.40;;;;;;4991923;28;20778;-77
2022/09/26 13:10:51;;;;;;;1.67;0.80;;;15.50;90.80;;;;;;4993487;28;20448;-76
2022/09/26 13:13:36;;;;;;;7.23;0.90;;;15.80;93.60;;;;;;4993160;28;20489;-76
2022/09/26 13:16:32;;;;;;;6.00;0.77;;;16.00;93.70;;;;;;4993508;28;20881;-76
2022/09/26 13:19:20;;;;;;;1.80;0.87;;;15.90;91.80;;;;;;4993601;28;20441;-79
2022/09/26 13:21:58;;;;;;;1.43;0.70;;;16.10;90.40;;;;;;4993327;28;20475;-76
2022/09/26 13:24:33;;;;;;;3.43;0.70;;;16.30;92.20;;;;;;4984048;28;20845;-75
2022/09/26 13:27:12;;;;;;;0.90;0.60;;;16.30;93.40;;;;;;4975859;28;20425;-76
2022/09/26 13:29:42;;;;;;;95.30;34.83;;;15.90;93.10;;;;;;4973234;28;20401;-74
2022/09/26 13:32:40;;;;;;;2.03;1.33;;;16.10;96.30;;;;;;4989431;28;20451;-75
2022/09/26 13:35:20;;;;;;;4.07;1.00;;;16.20;91.90;;;;;;4980558;28;20593;-74
2022/09/26 13:37:58;;;;;;;1.20;0.70;;;16.20;95.20;;;;;;4973108;28;20417;-75
2022/09/26 13:40:39;;;;;;;1.53;0.80;;;15.90;91.60;;;;;;5008746;28;20938;-75
2022/09/26 13:43:26;;;;;;;4.33;0.77;;;15.60;95.10;;;;;;5012030;28;20420;-74
2022/09/26 13:45:58;;;;;;;1.53;0.80;;;15.50;91.50;;;;;;5015977;28;20940;-78
2022/09/26 13:48:40;;;;;;;1.20;0.80;;;15.70;92.40;;;;;;5014561;28;20443;-74
2022/09/26 13:51:28;;;;;;;4.40;1.53;;;15.70;92.00;;;;;;5015569;28;20427;-74
2022/09/26 13:53:59;;;;;;;3.73;1.10;;;16.10;95.30;;;;;;4988665;28;20412;-75
2022/09/26 13:56:33;;;;;;;3.27;0.80;;;16.10;95.00;;;;;;4983388;28;20413;-77
2022/09/26 13:59:12;;;;;;;2.00;1.00;;;16.00;96.30;;;;;;4975111;28;20484;-75
2022/09/26 14:01:58;;;;;;;3.00;1.40;;;15.90;93.80;;;;;;4975007;28;20850;-74
2022/09/26 14:04:34;;;;;;;1.83;0.80;;;15.80;93.10;;;;;;4991987;28;20451;-75
2022/09/26 14:10:12;;;;;;;2.57;0.90;;;16.20;96.00;;;;;;5010446;28;20511;-75
2022/09/26 14:12:58;;;;;;;1.80;1.00;;;16.20;95.50;;;;;;5009151;28;20455;-75
2022/09/26 14:15:27;;;;;;;2.30;1.00;;;16.10;96.30;;;;;;5013661;28;20408;-77
2022/09/26 14:18:11;;;;;;;3.23;0.93;;;16.00;96.10;;;;;;5014092;28;20435;-74
2022/09/26 14:20:56;;;;;;;4.40;1.87;;;16.00;96.30;;;;;;5009785;28;20518;-76
2022/09/26 14:23:47;;;;;;;1.67;0.90;;;16.00;95.50;;;;;;4999687;28;20921;-76
2022/09/26 14:26:40;;;;;;;2.33;0.87;;;15.70;94.40;;;;;;4995668;28;20428;-76
2022/09/26 14:29:28;;;;;;;1.77;0.90;;;15.50;95.70;;;;;;4988903;28;20417;-75
2022/09/26 14:32:16;;;;;;;3.80;1.03;;;15.30;95.80;;;;;;4980741;28;20485;-75
2022/09/26 14:34:45;;;;;;;1.17;0.80;;;15.20;95.60;;;;;;4972072;28;20414;-75
2022/09/26 14:37:23;;;;;;;1.67;0.80;;;15.30;95.30;;;;;;4987178;28;20896;-75
2022/09/26 14:40:31;;;;;;;6.87;1.17;;;15.20;96.30;;;;;;5000601;28;20449;-76
2022/09/26 14:42:58;;;;;;;2.43;0.70;;;15.00;96.30;;;;;;4985780;28;20409;-75
2022/09/26 14:45:32;;;;;;;1.57;0.77;;;15.00;96.30;;;;;;4975781;28;20921;-76
2022/09/26 14:48:36;;;;;;;1.30;0.77;;;15.00;96.30;;;;;;4975072;28;20924;-77
2022/09/26 14:51:03;;;;;;;2.97;1.30;;;14.90;96.30;;;;;;4975278;28;20421;-78
2022/09/26 14:53:32;;;;;;;3.67;0.90;;;14.90;96.30;;;;;;4998609;28;20425;-75
2022/09/26 14:56:05;;;;;;;1.97;0.80;;;14.70;96.30;;;;;;4996327;28;20819;-77
2022/09/26 14:58:36;;;;;;;1.83;1.10;;;14.90;96.30;;;;;;4988540;28;20427;-80
2022/09/26 15:01:05;;;;;;;1.63;0.90;;;15.20;96.30;;;;;;5001974;28;20435;-78
2022/09/26 15:03:33;;;;;;;1.10;0.67;;;15.20;96.30;;;;;;5013869;28;20419;-76
2022/09/26 15:06:01;;;;;;;1.50;0.90;;;15.20;96.30;;;;;;5014431;28;20856;-77
2022/09/26 15:08:30;;;;;;;1.93;0.87;;;15.00;96.30;;;;;;5009832;28;20452;-76
2022/09/26 15:10:58;;;;;;;2.83;1.00;;;14.60;96.30;;;;;;4994574;28;20940;-76
2022/09/26 15:13:38;;;;;;;2.50;0.87;;;14.50;96.30;;;;;;4994578;28;20405;-76
2022/09/26 15:16:23;;;;;;;2.13;0.80;;;14.40;96.30;;;;;;5000942;28;20462;-75
2022/09/26 15:18:59;;;;;;;1.10;0.80;;;14.40;96.30;;;;;;4974991;28;20881;-76
2022/09/26 15:21:39;;;;;;;1.70;1.00;;;14.60;96.30;;;;;;4973746;28;20429;-78
2022/09/26 15:24:26;;;;;;;6.00;0.90;;;14.40;96.30;;;;;;4974686;28;20398;-75
2022/09/26 15:26:55;;;;;;;2.20;1.03;;;14.40;96.30;;;;;;5004165;28;20452;-76
2022/09/26 15:29:21;;;;;;;3.73;1.00;;;14.30;96.30;;;;;;5012618;28;20931;-76
2022/09/26 15:31:47;;;;;;;1.97;1.10;;;14.30;96.30;;;;;;5013639;28;20486;-76
2022/09/26 15:34:29;;;;;;;1.67;0.93;;;14.50;96.30;;;;;;5012824;28;20408;-75
2022/09/26 15:36:56;;;;;;;2.90;1.00;;;14.50;96.30;;;;;;4989727;28;20424;-74
2022/09/26 15:39:30;;;;;;;4.70;1.50;;;14.40;96.30;;;;;;4973075;28;20457;-76
2022/09/26 15:44:57;;;;;;;1.63;1.03;;;14.30;96.30;;;;;;4979972;28;20413;-78
2022/09/26 15:47:25;;;;;;;2.57;1.10;;;14.20;96.30;;;;;;4990153;28;20424;-76
2022/09/26 15:50:11;;;;;;;5.33;1.20;;;14.10;96.30;;;;;;4993723;28;20435;-77
2022/09/26 15:52:42;;;;;;;3.57;1.17;;;14.10;96.30;;;;;;4993701;28;20393;-76
2022/09/26 15:55:17;;;;;;;2.03;1.20;;;13.90;96.30;;;;;;4993680;28;20864;-76
2022/09/26 15:57:46;;;;;;;3.30;1.10;;;13.90;96.30;;;;;;4980314;28;20417;-76
2022/09/26 16:00:14;;;;;;;3.43;1.60;;;13.70;96.30;;;;;;4981211;28;20472;-77
2022/09/26 16:02:40;;;;;;;2.47;1.53;;;13.80;96.30;;;;;;4973940;28;20410;-76
2022/09/26 16:05:08;;;;;;;3.17;1.70;;;13.80;96.30;;;;;;4972910;28;20432;-76
2022/09/26 16:07:36;;;;;;;2.53;1.40;;;13.80;96.30;;;;;;4973602;28;20422;-75
2022/09/26 16:10:17;;;;;;;4.97;1.30;;;13.60;96.30;;;;;;4973421;28;20770;-75
2022/09/26 16:12:43;;;;;;;7.50;1.43;;;13.50;96.30;;;;;;4972334;28;20492;-77
2022/09/26 16:15:19;;;;;;;1.10;1.00;;;13.40;96.30;;;;;;4973392;28;20516;-77
2022/09/26 16:17:50;;;;;;;2.83;2.00;;;13.30;96.30;;;;;;4973884;28;20421;-75
2022/09/26 16:20:16;;;;;;;3.77;1.33;;;13.00;96.30;;;;;;4973884;28;20504;-75
2022/09/26 16:22:45;;;;;;;2.13;1.50;;;12.90;96.30;;;;;;4973526;28;20446;-77
2022/09/26 16:25:14;;;;;;;2.77;1.97;;;12.80;96.30;;;;;;4973308;28;20232;-76
2022/09/26 16:27:40;;;;;;;3.43;1.50;;;12.70;96.30;;;;;;5000802;28;20433;-80
2022/09/26 16:30:28;;;;;;;6.00;1.50;;;12.50;96.30;;;;;;5001267;28;20500;-74
2022/09/26 16:33:14;;;;;;;4.20;1.40;;;12.40;96.30;;;;;;5011407;28;20176;-77
2022/09/26 16:35:46;;;;;;;4.30;1.63;;;12.20;96.30;;;;;;4973983;28;20430;-77
2022/09/26 16:38:34;;;;;;;6.97;2.27;;;12.10;96.30;;;;;;4972023;28;20420;-75
2022/09/26 16:41:07;;;;;;;4.23;1.57;;;12.10;96.30;;;;;;4973085;28;20441;-77
2022/09/26 16:43:34;;;;;;;4.73;1.60;;;12.00;96.30;;;;;;4980627;28;20480;-78
2022/09/26 16:46:16;;;;;;;10.27;3.63;;;11.90;96.30;;;;;;4977566;28;20429;-74
2022/09/26 16:48:55;;;;;;;35.10;23.37;;;11.70;96.30;;;;;;4971006;28;20417;-78
2022/09/26 16:51:23;;;;;;;17.00;10.67;;;11.50;96.30;;;;;;4978055;28;21134;-78
2022/09/26 16:53:52;;;;;;;8.10;6.20;;;11.40;96.30;;;;;;4977007;28;20422;-79
2022/09/26 16:56:21;;;;;;;4.87;2.60;;;11.30;96.30;;;;;;4977636;28;20451;-79
2022/09/26 16:58:54;;;;;;;3.57;2.63;;;11.20;96.30;;;;;;4990854;28;20455;-78
2022/09/26 17:04:08;;;;;;;3.80;1.80;;;11.10;96.30;;;;;;4973683;28;20413;-77
2022/09/26 17:06:36;;;;;;;7.43;2.10;;;10.90;96.30;;;;;;4973195;28;20402;-78
2022/09/26 17:09:12;;;;;;;6.33;2.47;;;10.80;96.30;;;;;;4972811;28;20406;-77
2022/09/26 17:11:37;;;;;;;5.67;4.27;;;10.80;96.30;;;;;;4972595;28;20433;-77
2022/09/26 17:14:03;;;;;;;11.70;6.80;;;10.70;96.30;;;;;;4973971;28;20936;-78
2022/09/26 17:16:30;;;;;;;10.33;7.30;;;10.60;96.30;;;;;;4974169;28;20179;-79
2022/09/26 17:18:56;;;;;;;64.90;45.83;;;10.50;96.30;;;;;;4976220;28;20549;-78
2022/09/26 17:21:22;;;;;;;24.70;12.00;;;10.40;96.30;;;;;;4976242;28;20495;-79
2022/09/26 17:23:48;;;;;;;17.00;15.03;;;10.50;96.30;;;;;;4978439;28;20201;-78
2022/09/26 17:26:22;;;;;;;6.10;3.90;;;10.40;96.30;;;;;;4985528;28;20278;-80
2022/09/26 17:28:49;;;;;;;7.07;4.30;;;10.40;96.30;;;;;;5001493;28;20553;-78
2022/09/26 17:31:19;;;;;;;8.20;6.23;;;10.40;96.30;;;;;;4982004;28;20933;-75
2022/09/26 17:33:48;;;;;;;9.77;6.20;;;10.30;96.30;;;;;;4977734;28;20413;-76
2022/09/26 17:36:23;;;;;;;9.93;6.13;;;10.30;96.30;;;;;;4990635;28;20425;-76
2022/09/26 17:38:49;;;;;;;4.33;3.70;;;10.30;96.30;;;;;;4994485;28;20410;-76
2022/09/26 17:41:14;;;;;;;10.23;2.73;;;10.20;96.30;;;;;;4997824;28;20527;-78
2022/09/26 17:43:41;;;;;;;7.53;4.00;;;10.20;96.30;;;;;;5015735;28;20248;-78
2022/09/26 17:46:13;;;;;;;4.13;3.00;;;10.10;96.30;;;;;;5016780;28;20586;-76
2022/09/26 17:48:40;;;;;;;11.73;5.10;;;10.10;96.30;;;;;;5015782;28;20450;-76
2022/09/26 17:51:07;;;;;;;2.60;2.13;;;10.10;96.30;;;;;;5015986;28;20428;-76
2022/09/26 17:53:38;;;;;;;3.10;2.00;;;10.10;96.30;;;;;;5015675;28;20407;-77
2022/09/26 17:56:05;;;;;;;2.90;1.80;;;10.10;96.30;;;;;;5011696;28;20426;-77
2022/09/26 17:58:32;;;;;;;10.60;6.30;;;10.10;96.30;;;;;;4974820;28;20413;-76